createdAt,value
2019-05-13T00:00:46.236Z,102028.73
2019-05-13T00:03:16.014Z,102032.68
2019-05-13T00:05:45.742Z,102028.94
2019-05-13T00:08:15.200Z,102028.05
2019-05-13T00:10:45.412Z,102024.67
2019-05-13T00:13:15.361Z,102031.12
2019-05-13T00:15:50.801Z,102030.45
2019-05-13T00:18:25.304Z,102028.80
2019-05-13T00:20:55.080Z,102043.37
2019-05-13T00:23:24.743Z,102035.99
2019-05-13T00:25:55.057Z,102049.97
2019-05-13T00:28:24.755Z,102044.89
2019-05-13T00:30:54.455Z,102046.20
2019-05-13T00:33:24.876Z,102047.63
2019-05-13T00:35:54.651Z,102055.62
2019-05-13T00:38:24.731Z,102054.00
2019-05-13T00:40:57.919Z,102053.25
2019-05-13T00:43:27.577Z,102056.32
2019-05-13T00:45:57.535Z,102057.69
2019-05-13T00:48:29.697Z,102059.56
2019-05-13T00:51:03.865Z,102064.00
2019-05-13T00:53:35.323Z,102066.63
2019-05-13T00:56:07.343Z,102071.18
2019-05-13T00:58:37.274Z,102070.48
2019-05-13T01:01:10.789Z,102071.40
2019-05-13T01:03:40.568Z,102065.44
2019-05-13T01:06:10.218Z,102063.31
2019-05-13T01:08:40.040Z,102062.76
2019-05-13T01:11:09.583Z,102069.72
2019-05-13T01:13:40.553Z,102068.06
2019-05-13T01:16:10.243Z,102064.52
2019-05-13T01:18:39.862Z,102062.39
2019-05-13T01:21:09.853Z,102064.70
2019-05-13T01:23:39.932Z,102074.88
2019-05-13T01:26:10.186Z,102069.75
2019-05-13T01:28:43.629Z,102074.22
2019-05-13T01:31:13.301Z,102072.58
2019-05-13T01:33:44.479Z,102071.82
2019-05-13T01:36:14.153Z,102072.38
2019-05-13T01:38:43.885Z,102075.28
2019-05-13T01:41:13.746Z,102075.10
2019-05-13T01:43:44.242Z,102076.20
2019-05-13T01:46:14.959Z,102078.83
2019-05-13T01:48:45.539Z,102083.36
2019-05-13T01:51:15.270Z,102081.72
2019-05-13T01:53:44.847Z,102086.12
2019-05-13T01:56:14.620Z,102083.20
2019-05-13T01:58:44.959Z,102088.23
2019-05-13T02:01:15.125Z,102083.52
2019-05-13T02:03:45.805Z,102087.47
2019-05-13T02:06:15.524Z,102095.05
2019-05-13T02:08:45.553Z,102093.07
2019-05-13T02:11:15.224Z,102098.86
2019-05-13T02:13:50.694Z,102108.16
2019-05-13T02:16:20.072Z,102109.52
2019-05-13T02:18:49.615Z,102114.37
2019-05-13T02:21:19.190Z,102110.92
2019-05-13T02:23:48.643Z,102110.69
2019-05-13T02:26:18.175Z,102107.63
2019-05-13T02:28:47.873Z,102114.71
2019-05-13T02:31:25.838Z,102111.66
2019-05-13T02:33:48.706Z,102111.36
2019-05-13T02:36:22.537Z,102110.05
2019-05-13T02:38:52.952Z,102109.72
2019-05-13T02:41:23.112Z,102113.98
2019-05-13T02:43:53.552Z,102111.22
2019-05-13T02:46:23.221Z,102114.14
2019-05-13T02:48:53.383Z,102116.37
2019-05-13T02:51:23.293Z,102115.11
2019-05-13T02:53:53.067Z,102119.96
2019-05-13T02:56:22.915Z,102120.45
2019-05-13T02:58:52.814Z,102122.34
2019-05-13T03:01:22.583Z,102125.05
2019-05-13T03:03:52.991Z,102128.98
2019-05-13T03:06:24.663Z,102128.73
2019-05-13T03:08:54.751Z,102127.12
2019-05-13T03:11:24.374Z,102129.36
2019-05-13T03:13:53.949Z,102130.72
2019-05-13T03:16:45.527Z,102134.34
2019-05-13T03:19:15.301Z,102130.72
2019-05-13T03:21:47.282Z,102133.91
2019-05-13T03:24:16.919Z,102132.77
2019-05-13T03:26:46.396Z,102138.06
2019-05-13T03:29:16.205Z,102136.80
2019-05-13T03:31:47.078Z,102138.23
2019-05-13T03:34:25.532Z,102137.38
2019-05-13T03:36:56.897Z,102131.25
2019-05-13T03:39:23.593Z,102139.95
2019-05-13T03:41:56.279Z,102140.77
2019-05-13T03:44:28.095Z,102141.47
2019-05-13T03:47:03.393Z,102141.63
2019-05-13T03:49:36.392Z,102140.30
2019-05-13T03:52:06.287Z,102142.98
2019-05-13T03:54:36.817Z,102146.81
2019-05-13T03:57:08.277Z,102143.22
2019-05-13T03:59:37.825Z,102148.44
2019-05-13T04:02:07.608Z,102151.60
2019-05-13T04:04:37.140Z,102148.34
2019-05-13T04:07:06.767Z,102156.50
2019-05-13T04:09:38.609Z,102157.92
2019-05-13T04:12:13.410Z,102146.14
2019-05-13T04:14:43.056Z,102157.58
2019-05-13T04:17:12.861Z,102156.28
2019-05-13T04:19:42.749Z,102159.10
2019-05-13T04:22:13.071Z,102165.06
2019-05-13T04:24:43.150Z,102163.36
2019-05-13T04:27:13.515Z,102169.49
2019-05-13T04:29:45.485Z,102164.73
2019-05-13T04:32:18.823Z,102170.19
2019-05-13T04:34:49.054Z,102159.74
2019-05-13T04:37:22.250Z,102172.81
2019-05-13T04:39:55.798Z,102173.63
2019-05-13T04:42:23.952Z,102175.83
2019-05-13T04:44:53.523Z,102174.27
2019-05-13T04:47:23.160Z,102175.34
2019-05-13T04:49:53.811Z,102185.30
2019-05-13T04:52:23.861Z,102179.77
2019-05-13T04:54:53.483Z,102187.23
2019-05-13T04:57:26.236Z,102190.92
2019-05-13T04:59:57.225Z,102189.94
2019-05-13T05:02:54.800Z,102197.52
2019-05-13T05:05:53.056Z,102200.17
2019-05-13T05:09:12.847Z,102197.73
2019-05-13T05:12:19.804Z,102193.91
2019-05-13T05:15:19.894Z,102198.89
2019-05-13T05:18:28.833Z,102208.69
2019-05-13T05:21:06.004Z,102207.66
2019-05-13T05:24:14.961Z,102210.68
2019-05-13T05:27:27.247Z,102205.89
2019-05-13T05:30:41.181Z,102199.64
2019-05-13T05:33:37.667Z,102205.42
2019-05-13T05:36:53.649Z,102210.89
2019-05-13T05:39:25.615Z,102224.02
2019-05-13T05:41:57.192Z,102218.66
2019-05-13T05:44:29.190Z,102207.06
2019-05-13T05:47:03.668Z,102217.58
2019-05-13T05:49:34.343Z,102225.71
2019-05-13T05:52:07.563Z,102231.68
2019-05-13T05:54:39.132Z,102232.00
2019-05-13T05:57:11.905Z,102226.45
2019-05-13T05:59:42.554Z,102235.89
2019-05-13T06:02:13.019Z,102237.89
2019-05-13T06:04:43.384Z,102230.02
2019-05-13T06:07:15.678Z,102230.83
2019-05-13T06:09:45.368Z,102236.23
2019-05-13T06:12:15.242Z,102243.16
2019-05-13T06:14:46.477Z,102229.02
2019-05-13T06:17:17.817Z,102230.15
2019-05-13T06:19:47.695Z,102239.68
2019-05-13T06:22:17.501Z,102221.48
2019-05-13T06:24:47.376Z,102219.45
2019-05-13T06:27:17.876Z,102230.60
2019-05-13T06:29:49.330Z,102232.31
2019-05-13T06:32:25.357Z,102230.94
2019-05-13T06:34:52.609Z,102235.48
2019-05-13T06:37:23.446Z,102244.53
2019-05-13T06:39:53.018Z,102232.92
2019-05-13T06:42:22.617Z,102242.77
2019-05-13T06:44:52.672Z,102243.30
2019-05-13T06:47:24.624Z,102241.05
2019-05-13T06:49:54.665Z,102242.57
2019-05-13T06:52:24.826Z,102250.17
2019-05-13T06:54:56.429Z,102248.84
2019-05-13T06:57:28.111Z,102245.92
2019-05-13T07:00:01.414Z,102242.56
2019-05-13T07:02:32.090Z,102248.58
2019-05-13T07:05:02.525Z,102248.22
2019-05-13T07:07:32.242Z,102242.84
2019-05-13T07:10:06.916Z,102235.02
2019-05-13T07:12:41.184Z,102230.84
2019-05-13T07:15:11.746Z,102231.23
2019-05-13T07:17:41.752Z,102230.13
2019-05-13T07:20:13.165Z,102226.77
2019-05-13T07:22:42.934Z,102233.59
2019-05-13T07:25:13.029Z,102231.33
2019-05-13T07:27:44.105Z,102230.67
2019-05-13T07:30:14.740Z,102233.70
2019-05-13T07:32:44.707Z,102232.57
2019-05-13T07:35:14.966Z,102234.09
2019-05-13T07:37:44.864Z,102231.23
2019-05-13T07:40:16.945Z,102229.91
2019-05-13T07:42:47.934Z,102227.31
2019-05-13T07:45:17.961Z,102228.83
2019-05-13T07:47:47.660Z,102231.06
2019-05-13T07:50:17.195Z,102235.81
2019-05-13T07:52:47.588Z,102227.31
2019-05-13T07:55:17.410Z,102225.34
2019-05-13T07:57:48.179Z,102225.90
2019-05-13T08:00:21.808Z,102233.67
2019-05-13T08:02:52.311Z,102230.95
2019-05-13T08:05:23.124Z,102227.58
2019-05-13T08:07:53.248Z,102226.55
2019-05-13T08:10:23.335Z,102223.80
2019-05-13T08:12:52.897Z,102223.75
2019-05-13T08:15:23.144Z,102228.58
2019-05-13T08:17:53.627Z,102217.43
2019-05-13T08:20:23.594Z,102230.81
2019-05-13T08:22:53.583Z,102231.80
2019-05-13T08:25:23.129Z,102214.70
2019-05-13T08:27:52.660Z,102222.45
2019-05-13T08:30:22.908Z,102229.52
2019-05-13T08:32:54.710Z,102230.98
2019-05-13T08:35:25.357Z,102229.71
2019-05-13T08:37:54.777Z,102232.03
2019-05-13T08:40:24.313Z,102224.27
2019-05-13T08:42:54.077Z,102229.38
2019-05-13T08:45:24.493Z,102228.55
2019-05-13T08:47:54.930Z,102234.79
2019-05-13T08:50:25.943Z,102221.48
2019-05-13T08:52:55.614Z,102228.17
2019-05-13T08:55:25.771Z,102216.31
2019-05-13T09:00:52.899Z,102216.97
2019-05-13T09:03:23.323Z,102217.84
2019-05-13T09:05:54.126Z,102215.45
2019-05-13T09:08:26.525Z,102196.95
2019-05-13T09:10:57.271Z,102207.22
2019-05-13T09:13:27.566Z,102198.23
2019-05-13T09:15:57.038Z,102212.58
2019-05-13T09:18:27.149Z,102217.93
2019-05-13T09:20:57.145Z,102206.09
2019-05-13T09:23:26.934Z,102208.30
2019-05-13T09:25:56.318Z,102196.23
2019-05-13T09:28:25.693Z,102203.40
2019-05-13T09:30:55.235Z,102199.34
2019-05-13T09:33:24.665Z,102198.72
2019-05-13T09:35:54.237Z,102194.06
2019-05-13T09:38:24.116Z,102193.89
2019-05-13T09:41:01.696Z,102190.33
2019-05-13T09:43:31.529Z,102191.91
2019-05-13T09:46:02.010Z,102187.23
2019-05-13T09:48:32.248Z,102185.77
2019-05-13T09:51:02.596Z,102190.73
2019-05-13T09:53:32.799Z,102193.45
2019-05-13T09:56:05.795Z,102186.97
2019-05-13T09:58:36.174Z,102183.30
2019-05-13T10:01:05.885Z,102174.52
2019-05-13T10:03:51.967Z,102171.09
2019-05-13T10:06:06.741Z,102168.89
2019-05-13T10:08:36.577Z,102171.08
2019-05-13T10:11:06.306Z,102165.92
2019-05-13T10:13:36.495Z,102158.64
2019-05-13T10:16:07.245Z,102172.05
2019-05-13T10:18:37.129Z,102182.39
2019-05-13T10:21:07.642Z,102180.89
2019-05-13T10:23:37.708Z,102175.89
2019-05-13T10:26:12.530Z,102176.69
2019-05-13T10:28:42.991Z,102182.93
2019-05-13T10:31:13.895Z,102168.55
2019-05-13T10:33:43.337Z,102174.59
2019-05-13T10:36:12.987Z,102178.13
2019-05-13T10:38:42.346Z,102172.30
2019-05-13T10:41:12.335Z,102185.72
2019-05-13T10:43:44.209Z,102176.50
2019-05-13T10:46:13.559Z,102183.89
2019-05-13T10:48:44.855Z,102185.99
2019-05-13T10:51:14.482Z,102173.17
2019-05-13T10:53:44.430Z,102174.41
2019-05-13T10:56:14.004Z,102179.20
2019-05-13T10:58:44.372Z,102180.87
2019-05-13T11:01:15.185Z,102171.16
2019-05-13T11:03:44.781Z,102172.98
2019-05-13T11:06:14.985Z,102158.19
2019-05-13T11:08:44.405Z,102170.25
2019-05-13T11:11:14.641Z,102162.41
2019-05-13T11:13:55.177Z,102158.50
2019-05-13T11:16:16.577Z,102166.34
2019-05-13T11:18:46.150Z,102160.97
2019-05-13T11:21:15.507Z,102148.27
2019-05-13T11:23:45.706Z,102141.35
2019-05-13T11:26:15.368Z,102146.27
2019-05-13T11:28:44.814Z,102131.03
2019-05-13T11:31:14.331Z,102144.46
2019-05-13T11:33:44.073Z,102139.48
2019-05-13T11:36:19.561Z,102148.92
2019-05-13T11:38:49.769Z,102143.00
2019-05-13T11:41:22.936Z,102127.66
2019-05-13T11:44:11.015Z,102130.26
2019-05-13T11:46:24.316Z,102127.20
2019-05-13T11:48:54.459Z,102122.26
2019-05-13T11:51:25.703Z,102130.39
2019-05-13T11:53:55.635Z,102120.52
2019-05-13T11:56:25.943Z,102115.30
2019-05-13T11:58:55.905Z,102112.75
2019-05-13T12:01:25.415Z,102116.58
2019-05-13T12:03:55.132Z,102117.60
2019-05-13T12:06:26.219Z,102113.53
2019-05-13T12:08:55.900Z,102114.33
2019-05-13T12:11:27.531Z,102103.02
2019-05-13T12:13:56.905Z,102097.39
2019-05-13T12:16:27.485Z,102096.61
2019-05-13T12:18:57.866Z,102093.87
2019-05-13T12:21:27.631Z,102095.16
2019-05-13T12:23:57.917Z,102094.18
2019-05-13T12:26:27.852Z,102094.26
2019-05-13T12:28:57.442Z,102082.38
2019-05-13T12:31:27.149Z,102080.09
2019-05-13T12:33:56.999Z,102084.61
2019-05-13T12:36:26.469Z,102084.55
2019-05-13T12:38:56.007Z,102074.25
2019-05-13T12:41:25.632Z,102064.14
2019-05-13T12:43:55.652Z,102069.21
2019-05-13T12:46:25.199Z,102073.61
2019-05-13T12:48:54.831Z,102073.75
2019-05-13T12:51:26.051Z,102062.94
2019-05-13T12:53:55.447Z,102054.19
2019-05-13T12:56:25.172Z,102050.77
2019-05-13T12:58:54.605Z,102050.11
2019-05-13T13:01:24.806Z,102044.70
2019-05-13T13:03:54.585Z,102038.53
2019-05-13T13:06:32.408Z,102034.36
2019-05-13T13:09:16.448Z,102025.27
2019-05-13T13:12:34.642Z,102029.09
2019-05-13T13:14:58.486Z,102018.82
2019-05-13T13:17:28.806Z,102016.80
2019-05-13T13:20:08.218Z,102025.12
2019-05-13T13:22:32.148Z,102016.31
2019-05-13T13:25:05.033Z,102000.42
2019-05-13T13:27:59.863Z,102003.02
2019-05-13T13:30:09.255Z,102013.31
2019-05-13T13:32:38.920Z,102003.13
2019-05-13T13:35:08.907Z,101997.64
2019-05-13T13:37:38.448Z,102001.33
2019-05-13T13:40:08.392Z,101998.11
2019-05-13T13:42:38.126Z,102001.03
2019-05-13T13:45:08.987Z,101990.20
2019-05-13T13:50:16.844Z,101994.22
2019-05-13T13:52:52.558Z,101981.01
2019-05-13T13:55:25.569Z,101973.25
2019-05-13T13:57:56.702Z,101993.08
2019-05-13T14:00:38.175Z,101981.73
2019-05-13T14:02:56.157Z,101981.91
2019-05-13T14:05:25.457Z,101989.50
2019-05-13T14:07:12.890Z,101996.33
2019-05-13T14:07:55.164Z,101984.42
2019-05-13T14:10:25.268Z,101979.50
2019-05-13T14:12:55.230Z,101978.30
2019-05-13T14:15:25.706Z,101974.45
2019-05-13T14:17:56.516Z,101979.02
2019-05-13T14:20:26.585Z,101980.00
2019-05-13T14:22:58.036Z,101971.94
2019-05-13T14:25:28.042Z,101973.81
2019-05-13T14:27:58.530Z,101971.73
2019-05-13T14:30:30.828Z,101964.05
2019-05-13T14:33:02.143Z,101967.06
2019-05-13T14:35:31.222Z,101969.14
2019-05-13T14:38:02.454Z,101969.77
2019-05-13T14:40:32.070Z,101969.53
2019-05-13T14:43:03.868Z,101964.48
2019-05-13T14:45:33.257Z,101964.72
2019-05-13T14:48:02.995Z,101958.47
2019-05-13T14:50:32.693Z,101959.47
2019-05-13T14:53:05.500Z,101955.17
2019-05-13T14:55:35.082Z,101953.56
2019-05-13T14:58:06.650Z,101953.14
2019-05-13T15:00:36.167Z,101945.81
2019-05-13T15:03:13.056Z,101944.00
2019-05-13T15:05:43.111Z,101939.92
2019-05-13T15:08:14.982Z,101938.97
2019-05-13T15:10:45.459Z,101941.08
2019-05-13T15:13:15.239Z,101937.58
2019-05-13T15:15:44.556Z,101943.03
2019-05-13T15:18:14.169Z,101934.41
2019-05-13T15:20:43.922Z,101935.58
2019-05-13T15:23:13.611Z,101937.47
2019-05-13T15:25:43.903Z,101940.92
2019-05-13T15:28:13.339Z,101938.73
2019-05-13T15:30:42.701Z,101941.84
2019-05-13T15:33:12.577Z,101944.69
2019-05-13T15:35:42.791Z,101933.86
2019-05-13T15:38:12.864Z,101935.55
2019-05-13T15:40:42.775Z,101930.78
2019-05-13T15:43:13.526Z,101926.14
2019-05-13T15:45:44.605Z,101937.88
2019-05-13T15:48:14.533Z,101930.63
2019-05-13T15:50:44.848Z,101927.66
2019-05-13T15:53:14.696Z,101921.13
2019-05-13T15:55:44.414Z,101923.23
2019-05-13T15:58:13.891Z,101923.58
2019-05-13T16:00:43.906Z,101918.73
2019-05-13T16:03:14.759Z,101917.22
2019-05-13T16:05:45.068Z,101917.83
2019-05-13T16:08:14.495Z,101914.59
2019-05-13T16:10:46.449Z,101910.08
2019-05-13T16:13:16.730Z,101905.80
2019-05-13T16:15:46.182Z,101893.97
2019-05-13T16:18:15.613Z,101893.68
2019-05-13T16:20:45.801Z,101902.86
2019-05-13T16:23:15.230Z,101897.38
2019-05-13T16:25:44.918Z,101901.56
2019-05-13T16:28:14.471Z,101904.21
2019-05-13T16:30:47.461Z,101897.21
2019-05-13T16:33:17.224Z,101899.92
2019-05-13T16:35:51.588Z,101899.52
2019-05-13T16:38:23.160Z,101895.94
2019-05-13T16:40:53.323Z,101894.34
2019-05-13T16:43:25.584Z,101891.86
2019-05-13T16:45:56.723Z,101891.50
2019-05-13T16:48:26.735Z,101892.94
2019-05-13T16:50:58.383Z,101900.95
2019-05-13T16:53:31.263Z,101896.44
2019-05-13T16:56:02.129Z,101896.83
2019-05-13T16:58:32.759Z,101895.11
2019-05-13T17:01:06.957Z,101896.78
2019-05-13T17:03:36.471Z,101894.28
2019-05-13T17:06:06.557Z,101893.28
2019-05-13T17:08:37.737Z,101895.91
2019-05-13T17:11:11.550Z,101895.95
2019-05-13T17:13:43.754Z,101892.64
2019-05-13T17:16:14.087Z,101893.29
2019-05-13T17:18:44.397Z,101891.39
2019-05-13T17:21:14.383Z,101896.95
2019-05-13T17:23:45.071Z,101895.27
2019-05-13T17:26:15.383Z,101897.16
2019-05-13T17:28:44.838Z,101897.08
2019-05-13T17:31:15.087Z,101890.30
2019-05-13T17:33:45.830Z,101894.28
2019-05-13T17:36:17.318Z,101896.95
2019-05-13T17:38:47.150Z,101899.44
2019-05-13T17:41:17.631Z,101899.12
2019-05-13T17:43:48.840Z,101900.08
2019-05-13T17:46:18.853Z,101896.55
2019-05-13T17:48:52.028Z,101898.55
2019-05-13T17:51:22.514Z,101897.66
2019-05-13T17:53:52.615Z,101899.56
2019-05-13T17:56:22.608Z,101896.52
2019-05-13T17:58:52.360Z,101902.23
2019-05-13T18:01:22.090Z,101896.97
2019-05-13T18:03:52.096Z,101898.22
2019-05-13T18:06:22.334Z,101900.57
2019-05-13T18:08:52.591Z,101900.14
2019-05-13T18:11:23.027Z,101899.20
2019-05-13T18:13:53.345Z,101903.74
2019-05-13T18:16:22.749Z,101909.14
2019-05-13T18:18:52.574Z,101894.73
2019-05-13T18:21:23.341Z,101905.21
2019-05-13T18:23:53.449Z,101901.52
2019-05-13T18:26:23.535Z,101903.90
2019-05-13T18:28:54.644Z,101907.49
2019-05-13T18:31:25.001Z,101905.59
2019-05-13T18:33:54.654Z,101909.50
2019-05-13T18:36:27.955Z,101903.33
2019-05-13T18:38:58.029Z,101903.58
2019-05-13T18:41:28.369Z,101902.16
2019-05-13T18:43:58.485Z,101902.20
2019-05-13T18:46:29.165Z,101897.05
2019-05-13T18:49:02.165Z,101893.56
2019-05-13T18:51:31.750Z,101892.48
2019-05-13T18:54:01.384Z,101887.55
2019-05-13T18:56:32.946Z,101892.66
2019-05-13T18:59:04.193Z,101891.80
2019-05-13T19:01:33.936Z,101895.88
2019-05-13T19:04:03.725Z,101893.43
2019-05-13T19:06:33.687Z,101893.98
2019-05-13T19:09:06.557Z,101901.01
2019-05-13T19:11:38.108Z,101907.63
2019-05-13T19:14:08.198Z,101899.11
2019-05-13T19:16:42.162Z,101902.68
2019-05-13T19:19:16.297Z,101904.39
2019-05-13T19:21:44.578Z,101905.30
2019-05-13T19:24:20.202Z,101904.34
2019-05-13T19:26:55.610Z,101911.69
2019-05-13T19:29:26.400Z,101907.11
2019-05-13T19:31:57.034Z,101906.67
2019-05-13T19:34:27.974Z,101906.58
2019-05-13T19:36:57.806Z,101909.17
2019-05-13T19:39:37.553Z,101908.64
2019-05-13T19:42:11.607Z,101904.04
2019-05-13T19:44:47.374Z,101899.44
2019-05-13T19:47:28.262Z,101902.53
2019-05-13T19:50:09.619Z,101901.31
2019-05-13T19:52:46.041Z,101903.63
2019-05-13T19:55:28.234Z,101898.00
2019-05-13T19:58:07.493Z,101903.88
2019-05-13T20:00:45.599Z,101905.22
2019-05-13T20:03:33.698Z,101903.94
2019-05-13T20:06:14.735Z,101904.92
2019-05-13T20:08:53.681Z,101904.06
2019-05-13T20:11:31.388Z,101896.23
2019-05-13T20:14:05.811Z,101896.58
2019-05-13T20:16:42.116Z,101899.22
2019-05-13T20:19:15.893Z,101894.88
2019-05-13T20:21:52.997Z,101898.05
2019-05-13T20:24:31.309Z,101900.36
2019-05-13T20:27:11.999Z,101898.48
2019-05-13T20:29:53.772Z,101898.55
2019-05-13T20:32:29.841Z,101892.53
2019-05-13T20:35:11.476Z,101897.50
2019-05-13T20:37:46.017Z,101889.81
2019-05-13T20:40:22.056Z,101888.70
2019-05-13T20:42:54.173Z,101895.80
2019-05-13T20:45:36.514Z,101898.03
2019-05-13T20:48:11.978Z,101902.45
2019-05-13T20:50:54.825Z,101896.72
2019-05-13T20:53:36.826Z,101903.56
2019-05-13T20:56:15.015Z,101903.80
2019-05-13T20:59:02.398Z,101902.89
2019-05-13T21:01:41.958Z,101905.64
2019-05-13T21:04:32.240Z,101903.34
2019-05-13T21:07:06.418Z,101902.78
2019-05-13T21:09:42.494Z,101911.22
2019-05-13T21:12:22.075Z,101909.91
2019-05-13T21:15:18.685Z,101906.73
2019-05-13T21:17:51.621Z,101907.01
2019-05-13T21:20:25.871Z,101909.00
2019-05-13T21:22:54.938Z,101905.73
2019-05-13T21:25:27.151Z,101902.30
2019-05-13T21:27:59.465Z,101907.58
2019-05-13T21:30:31.772Z,101900.08
2019-05-13T21:33:03.240Z,101902.64
2019-05-13T21:35:34.285Z,101901.52
2019-05-13T21:38:04.257Z,101903.88
2019-05-13T21:40:37.231Z,101911.38
2019-05-13T21:43:08.986Z,101911.00
2019-05-13T21:45:41.528Z,101908.63
2019-05-13T21:48:11.626Z,101910.63
2019-05-13T21:50:42.407Z,101910.06
2019-05-13T21:53:12.530Z,101906.37
2019-05-13T21:55:45.792Z,101908.73
2019-05-13T21:58:16.658Z,101907.53
2019-05-13T22:00:54.187Z,101911.49
2019-05-13T22:03:25.917Z,101904.37
2019-05-13T22:05:56.255Z,101903.99
2019-05-13T22:08:26.812Z,101906.22
2019-05-13T22:10:58.820Z,101907.95
2019-05-13T22:13:32.136Z,101902.78
2019-05-13T22:16:04.066Z,101905.01
2019-05-13T22:18:36.258Z,101904.17
2019-05-13T22:21:07.349Z,101899.20
2019-05-13T22:23:41.194Z,101902.09
2019-05-13T22:26:16.343Z,101905.80
2019-05-13T22:28:48.459Z,101905.38
2019-05-13T22:31:19.323Z,101901.56
2019-05-13T22:33:51.696Z,101903.64
2019-05-13T22:36:21.963Z,101896.77
2019-05-13T22:38:52.255Z,101910.50
2019-05-13T22:41:22.329Z,101904.45
2019-05-13T22:43:58.233Z,101904.94
2019-05-13T22:46:23.649Z,101905.34
2019-05-13T22:48:55.558Z,101901.01
2019-05-13T22:51:25.202Z,101904.36
2019-05-13T22:53:55.755Z,101908.16
2019-05-13T22:56:26.251Z,101911.74
2019-05-13T22:58:55.993Z,101904.91
2019-05-13T23:01:26.177Z,101905.98
2019-05-13T23:07:24.977Z,101908.73
2019-05-13T23:09:54.549Z,101906.24
2019-05-13T23:12:25.055Z,101904.48
2019-05-13T23:14:54.644Z,101905.55
2019-05-13T23:17:24.071Z,101902.75
2019-05-13T23:19:53.746Z,101892.44
2019-05-13T23:22:23.839Z,101891.13
2019-05-13T23:24:53.528Z,101894.30
2019-05-13T23:27:23.312Z,101892.95
2019-05-13T23:29:53.253Z,101889.06
2019-05-13T23:32:23.215Z,101885.56
2019-05-13T23:34:53.106Z,101886.34
2019-05-13T23:37:23.208Z,101885.73
2019-05-13T23:39:52.729Z,101886.72
2019-05-13T23:42:22.095Z,101887.75
2019-05-13T23:44:52.160Z,101882.61
2019-05-13T23:47:21.929Z,101882.09
2019-05-13T23:49:51.544Z,101886.16
2019-05-13T23:52:21.959Z,101885.88
2019-05-13T23:54:51.841Z,101885.66
2019-05-13T23:57:22.331Z,101893.31
2019-05-13T23:59:51.895Z,101896.29
